createdAt,value
2023-03-28T00:00:18.566Z,5.20
2023-03-28T00:02:45.322Z,5.20
2023-03-28T00:05:11.822Z,5.20
2023-03-28T00:07:39.632Z,5.20
2023-03-28T00:10:06.797Z,5.20
2023-03-28T00:12:33.302Z,5.20
2023-03-28T00:15:00.751Z,5.20
2023-03-28T00:17:27.263Z,5.20
2023-03-28T00:19:53.742Z,5.20
2023-03-28T00:22:20.542Z,5.10
2023-03-28T00:24:48.715Z,5.10
2023-03-28T00:27:15.883Z,5.00
2023-03-28T00:29:42.376Z,5.00
2023-03-28T00:32:08.989Z,5.00
2023-03-28T00:34:35.519Z,5.00
2023-03-28T00:37:05.403Z,5.00
2023-03-28T00:39:31.932Z,5.00
2023-03-28T00:42:01.318Z,5.00
2023-03-28T00:44:44.468Z,5.00
2023-03-28T00:47:10.991Z,5.00
2023-03-28T00:49:37.506Z,5.00
2023-03-28T00:52:04.282Z,4.90
2023-03-28T00:54:33.923Z,4.90
2023-03-28T00:57:02.041Z,5.00
2023-03-28T00:59:32.720Z,4.90
2023-03-28T01:01:59.422Z,4.90
2023-03-28T01:04:27.970Z,4.80
2023-03-28T01:06:56.850Z,4.80
2023-03-28T01:09:26.884Z,4.70
2023-03-28T01:11:54.436Z,4.70
2023-03-28T01:14:22.952Z,4.70
2023-03-28T01:16:51.234Z,4.70
2023-03-28T01:19:33.435Z,4.70
2023-03-28T01:22:06.439Z,4.70
2023-03-28T01:24:36.210Z,4.70
2023-03-28T01:27:17.737Z,4.60
2023-03-28T01:30:02.879Z,4.50
2023-03-28T01:32:48.313Z,4.50
2023-03-28T01:35:33.219Z,4.50
2023-03-28T01:37:59.732Z,4.50
2023-03-28T01:40:35.554Z,4.50
2023-03-28T01:43:20.321Z,4.50
2023-03-28T01:45:59.450Z,4.60
2023-03-28T01:48:44.667Z,4.70
2023-03-28T01:51:20.898Z,4.70
2023-03-28T01:53:57.634Z,4.70
2023-03-28T01:56:28.069Z,4.80
2023-03-28T01:58:58.284Z,4.80
2023-03-28T02:01:30.136Z,4.70
2023-03-28T02:04:00.035Z,4.60
2023-03-28T02:06:27.957Z,4.60
2023-03-28T02:08:55.281Z,4.50
2023-03-28T02:11:22.708Z,4.50
2023-03-28T02:13:51.028Z,4.40
2023-03-28T02:16:19.685Z,4.40
2023-03-28T02:18:49.027Z,4.40
2023-03-28T02:21:20.913Z,4.30
2023-03-28T02:23:49.673Z,4.40
2023-03-28T02:26:17.231Z,4.30
2023-03-28T02:28:44.666Z,4.30
2023-03-28T02:31:11.667Z,4.30
2023-03-28T02:33:45.957Z,4.30
2023-03-28T02:36:26.658Z,4.30
2023-03-28T02:39:03.799Z,4.30
2023-03-28T02:41:33.457Z,4.30
2023-03-28T02:44:02.886Z,4.30
2023-03-28T02:46:49.611Z,4.30
2023-03-28T02:49:26.534Z,4.30
2023-03-28T02:52:14.720Z,4.30
2023-03-28T02:54:49.378Z,4.20
2023-03-28T02:57:18.431Z,4.20
2023-03-28T02:59:52.742Z,4.20
2023-03-28T03:02:20.399Z,4.20
2023-03-28T03:04:47.466Z,4.20
2023-03-28T03:07:14.506Z,4.20
2023-03-28T03:09:43.775Z,4.20
2023-03-28T03:12:11.670Z,4.20
2023-03-28T03:14:38.910Z,4.30
2023-03-28T03:17:05.811Z,4.30
2023-03-28T03:19:32.726Z,4.30
2023-03-28T03:21:59.205Z,4.40
2023-03-28T03:24:25.690Z,4.40
2023-03-28T03:26:52.164Z,4.40
2023-03-28T03:29:18.619Z,4.40
2023-03-28T03:31:45.253Z,4.30
2023-03-28T03:34:11.809Z,4.30
2023-03-28T03:36:38.267Z,4.30
2023-03-28T03:39:04.778Z,4.40
2023-03-28T03:41:31.269Z,4.30
2023-03-28T03:43:57.782Z,4.40
2023-03-28T03:46:24.331Z,4.40
2023-03-28T03:48:50.873Z,4.40
2023-03-28T03:51:17.457Z,4.30
2023-03-28T03:53:44.813Z,4.30
2023-03-28T03:56:11.285Z,4.40
2023-03-28T03:58:37.786Z,4.30
2023-03-28T04:01:04.408Z,4.30
2023-03-28T04:03:30.987Z,4.20
2023-03-28T04:05:58.031Z,4.20
2023-03-28T04:08:24.862Z,4.20
2023-03-28T04:10:51.456Z,4.20
2023-03-28T04:13:17.934Z,4.30
2023-03-28T04:15:46.350Z,4.30
2023-03-28T04:18:15.353Z,4.20
2023-03-28T04:20:43.403Z,4.20
2023-03-28T04:23:09.931Z,4.10
2023-03-28T04:25:36.703Z,4.10
2023-03-28T04:28:03.417Z,4.10
2023-03-28T04:30:29.913Z,3.90
2023-03-28T04:32:56.446Z,3.90
2023-03-28T04:35:24.008Z,3.80
2023-03-28T04:37:50.527Z,3.80
2023-03-28T04:40:17.644Z,3.80
2023-03-28T04:42:44.309Z,3.80
2023-03-28T04:45:10.928Z,3.80
2023-03-28T04:47:39.738Z,3.70
2023-03-28T04:50:07.770Z,3.60
2023-03-28T04:52:34.815Z,3.70
2023-03-28T04:55:01.332Z,3.60
2023-03-28T04:57:27.816Z,3.60
2023-03-28T04:59:54.341Z,3.50
2023-03-28T05:02:20.858Z,3.60
2023-03-28T05:04:47.497Z,3.50
2023-03-28T05:07:14.056Z,3.50
2023-03-28T05:09:40.526Z,3.40
2023-03-28T05:12:07.359Z,3.30
2023-03-28T05:14:33.893Z,3.30
2023-03-28T05:17:00.724Z,3.40
2023-03-28T05:19:27.195Z,3.50
2023-03-28T05:21:53.697Z,3.50
2023-03-28T05:24:20.146Z,3.60
2023-03-28T05:26:47.115Z,3.60
2023-03-28T05:29:13.663Z,3.60
2023-03-28T05:31:40.264Z,3.60
2023-03-28T05:34:06.758Z,3.70
2023-03-28T05:36:33.217Z,3.80
2023-03-28T05:38:59.698Z,3.80
2023-03-28T05:41:26.448Z,3.90
2023-03-28T05:43:52.917Z,4.00
2023-03-28T05:46:19.561Z,4.00
2023-03-28T05:48:49.394Z,4.00
2023-03-28T05:51:16.913Z,4.20
2023-03-28T05:53:43.700Z,4.40
2023-03-28T05:56:10.880Z,4.60
2023-03-28T05:58:37.382Z,4.80
2023-03-28T06:01:04.397Z,5.00
2023-03-28T06:03:32.063Z,5.10
2023-03-28T06:05:58.613Z,5.30
2023-03-28T06:08:25.288Z,5.50
2023-03-28T06:10:51.794Z,5.70
2023-03-28T06:13:18.309Z,5.90
2023-03-28T06:15:44.751Z,6.10
2023-03-28T06:18:11.298Z,6.30
2023-03-28T06:20:37.854Z,6.50
2023-03-28T06:23:04.460Z,6.70
2023-03-28T06:25:30.941Z,6.90
2023-03-28T06:27:57.859Z,7.10
2023-03-28T06:30:24.320Z,7.30
2023-03-28T06:32:51.130Z,7.60
2023-03-28T06:35:18.188Z,7.90
2023-03-28T06:37:44.703Z,8.10
2023-03-28T06:40:11.520Z,8.20
2023-03-28T06:42:38.048Z,8.20
2023-03-28T06:45:04.683Z,8.40
2023-03-28T06:47:31.224Z,8.50
2023-03-28T06:49:57.744Z,8.10
2023-03-28T06:52:24.225Z,7.80
2023-03-28T06:54:51.249Z,7.40
2023-03-28T06:57:17.783Z,7.00
2023-03-28T06:59:44.327Z,6.60
2023-03-28T07:02:11.369Z,6.40
2023-03-28T07:04:37.863Z,6.10
2023-03-28T07:07:04.395Z,5.90
2023-03-28T07:09:31.212Z,6.00
2023-03-28T07:11:57.670Z,6.50
2023-03-28T07:14:24.197Z,7.20
2023-03-28T07:16:50.682Z,7.30
2023-03-28T07:19:17.338Z,7.50
2023-03-28T07:21:43.781Z,7.90
2023-03-28T07:24:10.286Z,8.80
2023-03-28T07:26:36.807Z,8.90
2023-03-28T07:29:03.416Z,8.50
2023-03-28T07:31:29.937Z,8.70
2023-03-28T07:33:57.999Z,8.30
2023-03-28T07:36:26.377Z,7.90
2023-03-28T07:38:53.006Z,7.60
2023-03-28T07:41:19.812Z,7.40
2023-03-28T07:43:46.288Z,8.00
2023-03-28T07:46:14.371Z,9.50
2023-03-28T07:48:41.328Z,11.00
2023-03-28T07:51:09.122Z,11.80
2023-03-28T07:53:35.933Z,12.70
2023-03-28T07:56:02.424Z,13.00
2023-03-28T07:58:28.979Z,12.40
2023-03-28T08:00:56.234Z,13.10
2023-03-28T08:03:23.779Z,14.40
2023-03-28T08:05:54.153Z,15.40
2023-03-28T08:08:21.470Z,16.20
2023-03-28T08:10:51.065Z,17.30
2023-03-28T08:13:18.246Z,18.30
2023-03-28T08:15:44.794Z,19.30
2023-03-28T08:18:12.864Z,20.20
2023-03-28T08:20:39.321Z,20.00
2023-03-28T08:23:07.279Z,17.50
2023-03-28T08:25:33.787Z,16.30
2023-03-28T08:28:00.304Z,14.80
2023-03-28T08:30:27.083Z,13.20
2023-03-28T08:32:53.563Z,12.50
2023-03-28T08:35:20.116Z,13.40
2023-03-28T08:37:46.698Z,16.20
2023-03-28T08:40:16.219Z,18.50
2023-03-28T08:42:51.185Z,20.30
2023-03-28T08:45:23.581Z,21.60
2023-03-28T08:48:02.444Z,22.50
2023-03-28T08:50:31.288Z,22.00
2023-03-28T08:52:58.120Z,22.00
2023-03-28T08:55:30.519Z,21.90
2023-03-28T08:57:57.433Z,22.10
2023-03-28T09:00:29.593Z,22.10
2023-03-28T09:02:56.777Z,21.90
2023-03-28T09:05:37.313Z,21.80
2023-03-28T09:08:03.829Z,22.10
2023-03-28T09:10:42.662Z,21.80
2023-03-28T09:13:27.810Z,21.60
2023-03-28T09:16:12.402Z,22.20
2023-03-28T09:18:45.050Z,22.30
2023-03-28T09:21:35.853Z,21.20
2023-03-28T09:24:21.356Z,21.60
2023-03-28T09:26:56.641Z,22.30
2023-03-28T09:29:25.070Z,22.70
2023-03-28T09:32:14.636Z,22.30
2023-03-28T09:34:44.018Z,22.20
2023-03-28T09:37:29.694Z,22.70
2023-03-28T09:39:59.278Z,22.30
2023-03-28T09:42:36.489Z,20.00
2023-03-28T09:45:02.981Z,18.30
2023-03-28T09:47:29.629Z,18.30
2023-03-28T09:50:09.599Z,17.60
2023-03-28T09:52:39.330Z,17.70
2023-03-28T09:55:12.803Z,17.60
2023-03-28T09:57:58.862Z,16.50
2023-03-28T10:00:25.787Z,15.50
2023-03-28T10:02:53.059Z,14.70
2023-03-28T10:05:34.121Z,13.60
2023-03-28T10:08:03.130Z,12.90
2023-03-28T10:10:29.671Z,13.70
2023-03-28T10:12:57.746Z,15.20
2023-03-28T10:15:30.256Z,15.20
2023-03-28T10:17:58.928Z,13.80
2023-03-28T10:20:25.409Z,13.80
2023-03-28T10:22:54.543Z,14.60
2023-03-28T10:25:22.586Z,15.00
2023-03-28T10:27:51.619Z,15.30
2023-03-28T10:30:23.883Z,15.20
2023-03-28T10:33:11.837Z,15.30
2023-03-28T10:35:41.448Z,15.00
2023-03-28T10:38:18.375Z,14.30
2023-03-28T10:41:02.196Z,14.00
2023-03-28T10:43:33.816Z,13.70
2023-03-28T10:46:05.496Z,12.80
2023-03-28T10:48:34.303Z,12.70
2023-03-28T10:51:08.121Z,12.50
2023-03-28T10:53:49.066Z,12.40
2023-03-28T10:56:33.645Z,12.50
2023-03-28T10:59:19.078Z,12.50
2023-03-28T11:01:46.102Z,12.20
2023-03-28T11:04:19.380Z,11.80
2023-03-28T11:06:50.237Z,11.60
2023-03-28T11:09:21.035Z,11.40
2023-03-28T11:11:47.490Z,11.20
2023-03-28T11:14:27.352Z,11.20
2023-03-28T11:16:58.744Z,11.30
2023-03-28T11:19:25.197Z,11.60
2023-03-28T11:21:59.767Z,11.30
2023-03-28T11:24:26.350Z,11.20
2023-03-28T11:27:12.618Z,11.30
2023-03-28T11:29:45.816Z,11.50
2023-03-28T11:32:28.098Z,11.60
2023-03-28T11:35:14.857Z,11.50
2023-03-28T11:37:44.214Z,11.10
2023-03-28T11:40:18.325Z,11.00
2023-03-28T11:42:47.211Z,11.20
2023-03-28T11:45:49.602Z,11.60
2023-03-28T11:48:24.399Z,11.80
2023-03-28T11:51:03.213Z,11.90
2023-03-28T11:53:47.317Z,11.90
2023-03-28T11:56:13.854Z,11.90
2023-03-28T11:58:43.457Z,12.00
2023-03-28T12:01:16.979Z,11.90
2023-03-28T12:03:49.736Z,11.90
2023-03-28T12:06:21.969Z,11.60
2023-03-28T12:08:51.787Z,11.40
2023-03-28T12:11:25.496Z,11.20
2023-03-28T12:14:08.916Z,11.00
2023-03-28T12:16:42.165Z,10.90
2023-03-28T12:19:12.049Z,10.40
2023-03-28T12:22:05.022Z,10.10
2023-03-28T12:24:46.780Z,10.20
2023-03-28T12:27:18.217Z,10.30
2023-03-28T12:30:06.707Z,10.10
2023-03-28T12:32:33.171Z,10.10
2023-03-28T12:35:12.822Z,10.20
2023-03-28T12:37:56.855Z,10.20
2023-03-28T12:40:41.910Z,10.20
2023-03-28T12:43:10.713Z,10.00
2023-03-28T12:45:40.114Z,10.00
2023-03-28T12:48:18.374Z,10.10
2023-03-28T12:50:50.661Z,10.30
2023-03-28T12:53:17.538Z,10.50
2023-03-28T12:55:44.312Z,10.70
2023-03-28T12:58:12.517Z,10.80
2023-03-28T13:00:38.950Z,11.00
2023-03-28T13:03:05.520Z,11.00
2023-03-28T13:05:41.122Z,10.70
2023-03-28T13:08:21.130Z,10.60
2023-03-28T13:10:58.496Z,10.70
2023-03-28T13:13:30.563Z,11.00
2023-03-28T13:16:00.192Z,11.30
2023-03-28T13:18:29.674Z,11.40
2023-03-28T13:20:56.618Z,11.50
2023-03-28T13:23:27.975Z,11.60
2023-03-28T13:25:55.306Z,11.70
2023-03-28T13:28:29.045Z,11.70
2023-03-28T13:31:06.579Z,11.80
2023-03-28T13:33:34.304Z,11.90
2023-03-28T13:36:00.967Z,11.80
2023-03-28T13:38:27.773Z,11.80
2023-03-28T13:40:57.070Z,11.70
2023-03-28T13:43:23.627Z,11.80
2023-03-28T13:45:51.755Z,11.70
2023-03-28T13:48:18.480Z,11.70
2023-03-28T13:50:45.386Z,11.60
2023-03-28T13:53:11.914Z,11.50
2023-03-28T13:55:38.432Z,11.40
2023-03-28T13:58:04.921Z,11.30
2023-03-28T14:00:32.006Z,11.30
2023-03-28T14:03:02.312Z,11.30
2023-03-28T14:05:33.400Z,11.40
2023-03-28T14:08:19.511Z,11.30
2023-03-28T14:10:46.315Z,11.30
2023-03-28T14:13:18.250Z,11.30
2023-03-28T14:15:45.259Z,11.30
2023-03-28T14:18:31.650Z,11.30
2023-03-28T14:20:58.441Z,11.10
2023-03-28T14:23:32.969Z,11.00
2023-03-28T14:26:04.696Z,11.00
2023-03-28T14:28:31.678Z,11.00
2023-03-28T14:30:58.729Z,11.00
2023-03-28T14:33:25.457Z,11.10
2023-03-28T14:35:57.026Z,11.10
2023-03-28T14:38:27.996Z,11.10
2023-03-28T14:40:54.620Z,11.10
2023-03-28T14:43:26.006Z,11.10
2023-03-28T14:45:54.106Z,11.00
2023-03-28T14:48:24.677Z,11.00
2023-03-28T14:50:57.639Z,11.00
2023-03-28T14:53:25.791Z,10.90
2023-03-28T14:55:54.408Z,10.90
2023-03-28T14:58:24.409Z,10.90
2023-03-28T15:00:57.271Z,10.80
2023-03-28T15:03:26.253Z,10.60
2023-03-28T15:05:54.769Z,10.60
2023-03-28T15:08:28.072Z,10.50
2023-03-28T15:10:54.784Z,10.60
2023-03-28T15:13:26.045Z,10.60
2023-03-28T15:15:54.635Z,10.60
2023-03-28T15:18:25.216Z,10.70
2023-03-28T15:20:55.094Z,10.80
2023-03-28T15:23:31.891Z,10.90
2023-03-28T15:26:00.577Z,10.90
2023-03-28T15:28:27.927Z,10.90
2023-03-28T15:30:56.362Z,10.90
2023-03-28T15:33:24.571Z,10.90
2023-03-28T15:36:03.797Z,10.80
2023-03-28T15:38:30.453Z,10.80
2023-03-28T15:41:08.096Z,10.70
2023-03-28T15:43:37.315Z,10.70
2023-03-28T15:46:08.900Z,10.70
2023-03-28T15:48:35.714Z,10.80
2023-03-28T15:51:06.339Z,10.80
2023-03-28T15:53:32.821Z,10.80
2023-03-28T15:56:05.176Z,10.80
2023-03-28T15:58:31.943Z,10.70
2023-03-28T16:01:16.278Z,10.70
2023-03-28T16:03:42.852Z,10.50
2023-03-28T16:06:23.118Z,10.40
2023-03-28T16:09:07.078Z,10.20
2023-03-28T16:11:34.143Z,10.30
2023-03-28T16:14:00.999Z,10.30
2023-03-28T16:16:28.756Z,10.20
2023-03-28T16:18:55.612Z,10.20
2023-03-28T16:21:22.137Z,10.10
2023-03-28T16:23:48.600Z,10.10
2023-03-28T16:26:15.400Z,10.10
2023-03-28T16:28:42.142Z,10.10
2023-03-28T16:33:39.128Z,10.00
2023-03-28T16:36:05.831Z,10.00
2023-03-28T16:38:32.325Z,10.10
2023-03-28T16:40:58.776Z,10.10
2023-03-28T16:43:25.347Z,10.20
2023-03-28T16:45:52.059Z,10.20
2023-03-28T16:48:18.696Z,10.30
2023-03-28T16:50:55.511Z,10.30
2023-03-28T16:53:22.138Z,10.40
2023-03-28T16:55:48.767Z,10.40
2023-03-28T16:58:15.399Z,10.30
2023-03-28T17:00:42.081Z,10.20
2023-03-28T17:03:09.044Z,10.10
2023-03-28T17:05:36.317Z,10.00
2023-03-28T17:08:03.057Z,10.00
2023-03-28T17:10:29.616Z,10.00
2023-03-28T17:12:56.599Z,10.00
2023-03-28T17:15:23.082Z,9.90
2023-03-28T17:17:49.667Z,9.80
2023-03-28T17:20:17.110Z,9.80
2023-03-28T17:22:43.890Z,9.80
2023-03-28T17:25:11.110Z,9.70
2023-03-28T17:27:37.654Z,9.70
2023-03-28T17:30:04.393Z,9.70
2023-03-28T17:32:31.059Z,9.70
2023-03-28T17:34:57.934Z,9.70
2023-03-28T17:37:24.698Z,9.60
2023-03-28T17:39:52.333Z,9.70
2023-03-28T17:42:18.779Z,9.60
2023-03-28T17:44:45.463Z,9.60
2023-03-28T17:47:12.375Z,9.50
2023-03-28T17:49:38.837Z,9.40
2023-03-28T17:52:05.619Z,9.40
2023-03-28T17:54:32.486Z,9.40
2023-03-28T17:56:59.342Z,9.40
2023-03-28T17:59:26.273Z,9.40
2023-03-28T18:01:52.876Z,9.40
2023-03-28T18:04:19.591Z,9.40
2023-03-28T18:06:46.060Z,9.30
2023-03-28T18:09:12.761Z,9.30
2023-03-28T18:11:39.474Z,9.40
2023-03-28T18:14:06.381Z,9.40
2023-03-28T18:16:33.302Z,9.40
2023-03-28T18:19:00.161Z,9.40
2023-03-28T18:21:27.092Z,9.40
2023-03-28T18:23:53.572Z,9.40
2023-03-28T18:26:20.118Z,9.30
2023-03-28T18:28:46.617Z,9.30
2023-03-28T18:31:14.396Z,9.30
2023-03-28T18:33:42.783Z,9.30
2023-03-28T18:36:10.239Z,9.20
2023-03-28T18:38:38.180Z,9.20
2023-03-28T18:41:06.700Z,9.20
2023-03-28T18:43:33.563Z,9.20
2023-03-28T18:46:01.031Z,9.20
2023-03-28T18:48:30.842Z,9.20
2023-03-28T18:50:58.087Z,9.30
2023-03-28T18:53:25.069Z,9.20
2023-03-28T18:55:52.964Z,9.20
2023-03-28T18:58:19.806Z,9.20
2023-03-28T19:00:47.234Z,9.20
2023-03-28T19:03:17.154Z,9.20
2023-03-28T19:05:44.366Z,9.10
2023-03-28T19:08:10.850Z,9.10
2023-03-28T19:10:37.432Z,9.10
2023-03-28T19:13:03.901Z,9.10
2023-03-28T19:15:30.386Z,9.10
2023-03-28T19:17:57.322Z,9.10
2023-03-28T19:20:23.798Z,9.20
2023-03-28T19:22:50.382Z,9.20
2023-03-28T19:25:16.936Z,9.20
2023-03-28T19:27:43.660Z,9.20
2023-03-28T19:30:10.355Z,9.10
2023-03-28T19:32:36.878Z,9.10
2023-03-28T19:35:03.534Z,9.10
2023-03-28T19:37:30.045Z,9.10
2023-03-28T19:39:59.010Z,9.00
2023-03-28T19:42:25.809Z,9.00
2023-03-28T19:44:52.417Z,9.00
2023-03-28T19:47:19.456Z,9.10
2023-03-28T19:49:46.127Z,9.00
2023-03-28T19:52:12.626Z,9.00
2023-03-28T19:54:39.168Z,9.10
2023-03-28T19:57:07.994Z,9.10
2023-03-28T19:59:34.947Z,9.20
2023-03-28T20:02:01.799Z,9.20
2023-03-28T20:04:28.670Z,9.20
2023-03-28T20:06:55.185Z,9.20
2023-03-28T20:09:21.753Z,9.20
2023-03-28T20:11:48.233Z,9.20
2023-03-28T20:14:17.151Z,9.20
2023-03-28T20:16:44.313Z,9.20
2023-03-28T20:19:10.833Z,9.30
2023-03-28T20:21:37.356Z,9.20
2023-03-28T20:24:04.145Z,9.20
2023-03-28T20:26:31.720Z,9.20
2023-03-28T20:28:59.326Z,9.20
2023-03-28T20:31:26.574Z,9.30
2023-03-28T20:33:53.418Z,9.30
2023-03-28T20:36:19.971Z,9.30
2023-03-28T20:38:46.563Z,9.20
2023-03-28T20:41:13.915Z,9.20
2023-03-28T20:43:46.630Z,9.20
2023-03-28T20:46:14.489Z,9.30
2023-03-28T20:48:41.938Z,9.30
2023-03-28T20:51:17.238Z,9.30
2023-03-28T20:53:45.356Z,9.30
2023-03-28T20:56:12.044Z,9.30
2023-03-28T20:58:39.453Z,9.30
2023-03-28T21:01:07.150Z,9.30
2023-03-28T21:03:46.848Z,9.20
2023-03-28T21:06:17.668Z,9.20
2023-03-28T21:08:45.844Z,9.20
2023-03-28T21:11:16.095Z,9.10
2023-03-28T21:13:42.634Z,9.00
2023-03-28T21:16:09.948Z,9.00
2023-03-28T21:18:37.338Z,9.00
2023-03-28T21:21:07.400Z,9.00
2023-03-28T21:23:34.548Z,8.90
2023-03-28T21:26:01.370Z,8.90
2023-03-28T21:28:27.914Z,8.80
2023-03-28T21:31:01.720Z,8.80
2023-03-28T21:33:29.128Z,8.90
2023-03-28T21:35:56.975Z,8.90
2023-03-28T21:38:23.786Z,8.90
2023-03-28T21:40:50.291Z,8.90
2023-03-28T21:43:16.888Z,8.90
2023-03-28T21:45:44.983Z,8.90
2023-03-28T21:48:12.766Z,8.80
2023-03-28T21:50:40.713Z,8.80
2023-03-28T21:53:08.164Z,8.80
2023-03-28T21:55:34.718Z,8.90
2023-03-28T21:58:01.300Z,8.90
2023-03-28T22:00:28.343Z,9.00
2023-03-28T22:02:55.417Z,8.90
2023-03-28T22:05:29.367Z,8.90
2023-03-28T22:07:56.630Z,8.90
2023-03-28T22:10:26.515Z,8.90
2023-03-28T22:12:53.539Z,9.00
2023-03-28T22:15:20.034Z,8.90
2023-03-28T22:17:46.550Z,8.90
2023-03-28T22:20:14.138Z,8.90
2023-03-28T22:22:44.570Z,8.80
2023-03-28T22:25:12.524Z,8.90
2023-03-28T22:27:39.461Z,8.90
2023-03-28T22:30:09.038Z,8.90
2023-03-28T22:32:37.841Z,8.90
2023-03-28T22:35:04.696Z,8.90
2023-03-28T22:37:31.170Z,8.80
2023-03-28T22:39:57.710Z,8.90
2023-03-28T22:42:24.278Z,8.90
2023-03-28T22:44:51.145Z,8.80
2023-03-28T22:47:17.950Z,8.90
2023-03-28T22:49:44.848Z,8.80
2023-03-28T22:52:12.640Z,8.80
2023-03-28T22:54:39.117Z,8.80
2023-03-28T22:57:05.801Z,8.70
2023-03-28T22:59:32.912Z,8.80
2023-03-28T23:01:59.380Z,8.80
2023-03-28T23:04:27.105Z,8.60
2023-03-28T23:06:54.983Z,8.60
2023-03-28T23:09:21.892Z,8.50
2023-03-28T23:11:48.458Z,8.50
2023-03-28T23:14:14.938Z,8.50
2023-03-28T23:16:43.314Z,8.50
2023-03-28T23:19:09.969Z,8.50
2023-03-28T23:21:36.838Z,8.50
2023-03-28T23:24:03.952Z,8.50
2023-03-28T23:26:31.657Z,8.60
2023-03-28T23:28:58.260Z,8.60
2023-03-28T23:31:24.762Z,8.50
2023-03-28T23:33:51.276Z,8.50
2023-03-28T23:36:21.011Z,8.40
2023-03-28T23:38:48.278Z,8.50
2023-03-28T23:41:14.865Z,8.50
2023-03-28T23:43:41.651Z,8.60
2023-03-28T23:46:08.936Z,8.60
2023-03-28T23:48:36.113Z,8.60
2023-03-28T23:51:03.014Z,8.60
2023-03-28T23:53:29.967Z,8.60
2023-03-28T23:55:56.472Z,8.60
2023-03-28T23:58:23.028Z,8.70
